sensor_id;sensor_type;location;lat;lon;timestamp;pressure;altitude;pressure_sealevel;temperature;humidity
48041;BME280;33815;48.386;11.738;2024-03-29T00:01:45;95313.81;;;-0.27;100.00
48041;BME280;33815;48.386;11.738;2024-03-29T00:04:10;95324.09;;;-0.15;100.00
48041;BME280;33815;48.386;11.738;2024-03-29T00:06:35;95316.75;;;0.03;100.00
48041;BME280;33815;48.386;11.738;2024-03-29T00:09:00;95312.78;;;-0.02;100.00
48041;BME280;33815;48.386;11.738;2024-03-29T00:11:27;95314.19;;;0.03;100.00
48041;BME280;33815;48.386;11.738;2024-03-29T00:13:52;95312.09;;;-0.04;100.00
48041;BME280;33815;48.386;11.738;2024-03-29T00:16:18;95317.81;;;0.11;100.00
48041;BME280;33815;48.386;11.738;2024-03-29T00:18:43;95307.78;;;0.08;100.00
48041;BME280;33815;48.386;11.738;2024-03-29T00:21:08;95280.66;;;-0.06;100.00
48041;BME280;33815;48.386;11.738;2024-03-29T00:23:34;95306.19;;;0.07;100.00
48041;BME280;33815;48.386;11.738;2024-03-29T00:25:59;95305.69;;;0.13;100.00
48041;BME280;33815;48.386;11.738;2024-03-29T00:28:24;95297.09;;;0.14;100.00
48041;BME280;33815;48.386;11.738;2024-03-29T00:30:49;95285.19;;;0.13;100.00
48041;BME280;33815;48.386;11.738;2024-03-29T00:33:15;95271.00;;;0.09;100.00
48041;BME280;33815;48.386;11.738;2024-03-29T00:35:40;95283.34;;;0.15;100.00
48041;BME280;33815;48.386;11.738;2024-03-29T00:38:06;95276.09;;;0.21;100.00
48041;BME280;33815;48.386;11.738;2024-03-29T00:40:31;95269.16;;;0.11;100.00
48041;BME280;33815;48.386;11.738;2024-03-29T00:42:56;95281.47;;;0.17;100.00
48041;BME280;33815;48.386;11.738;2024-03-29T00:45:21;95288.69;;;0.24;100.00
48041;BME280;33815;48.386;11.738;2024-03-29T00:47:47;95287.06;;;0.23;100.00
48041;BME280;33815;48.386;11.738;2024-03-29T00:50:12;95275.06;;;0.23;100.00
48041;BME280;33815;48.386;11.738;2024-03-29T00:52:37;95284.16;;;0.27;100.00
48041;BME280;33815;48.386;11.738;2024-03-29T00:55:03;95283.09;;;0.30;100.00
48041;BME280;33815;48.386;11.738;2024-03-29T00:57:28;95273.66;;;0.30;100.00
48041;BME280;33815;48.386;11.738;2024-03-29T00:59:54;95269.09;;;0.34;100.00
48041;BME280;33815;48.386;11.738;2024-03-29T01:02:19;95279.81;;;0.28;100.00
48041;BME280;33815;48.386;11.738;2024-03-29T01:04:44;95267.00;;;0.28;100.00
48041;BME280;33815;48.386;11.738;2024-03-29T01:07:09;95241.41;;;0.16;100.00
48041;BME280;33815;48.386;11.738;2024-03-29T01:09:35;95235.22;;;0.19;100.00
48041;BME280;33815;48.386;11.738;2024-03-29T01:12:00;95252.81;;;0.24;100.00
48041;BME280;33815;48.386;11.738;2024-03-29T01:14:25;95229.88;;;0.11;100.00
48041;BME280;33815;48.386;11.738;2024-03-29T01:16:50;95241.53;;;0.04;100.00
48041;BME280;33815;48.386;11.738;2024-03-29T01:19:16;95224.00;;;-0.12;100.00
48041;BME280;33815;48.386;11.738;2024-03-29T01:21:41;95216.09;;;-0.21;100.00
48041;BME280;33815;48.386;11.738;2024-03-29T01:24:06;95234.69;;;-0.19;100.00
48041;BME280;33815;48.386;11.738;2024-03-29T01:26:31;95214.34;;;-0.31;100.00
48041;BME280;33815;48.386;11.738;2024-03-29T01:28:57;95202.69;;;-0.36;100.00
48041;BME280;33815;48.386;11.738;2024-03-29T01:31:23;95184.41;;;-0.42;100.00
48041;BME280;33815;48.386;11.738;2024-03-29T01:33:49;95182.34;;;-0.48;100.00
48041;BME280;33815;48.386;11.738;2024-03-29T01:36:14;95178.75;;;-0.46;100.00
48041;BME280;33815;48.386;11.738;2024-03-29T01:38:40;95168.16;;;-0.53;100.00
48041;BME280;33815;48.386;11.738;2024-03-29T01:41:05;95170.72;;;-0.53;100.00
48041;BME280;33815;48.386;11.738;2024-03-29T01:43:30;95178.03;;;-0.59;100.00
48041;BME280;33815;48.386;11.738;2024-03-29T01:45:56;95179.78;;;-0.60;100.00
48041;BME280;33815;48.386;11.738;2024-03-29T01:48:22;95178.16;;;-0.72;100.00
48041;BME280;33815;48.386;11.738;2024-03-29T01:50:48;95185.25;;;-0.64;100.00
48041;BME280;33815;48.386;11.738;2024-03-29T01:53:14;95190.13;;;-0.61;100.00
48041;BME280;33815;48.386;11.738;2024-03-29T01:55:41;95174.78;;;-0.61;100.00
48041;BME280;33815;48.386;11.738;2024-03-29T01:58:08;95194.78;;;-0.55;100.00
48041;BME280;33815;48.386;11.738;2024-03-29T02:00:36;95190.59;;;-0.67;100.00
48041;BME280;33815;48.386;11.738;2024-03-29T02:03:02;95177.91;;;-0.80;100.00
48041;BME280;33815;48.386;11.738;2024-03-29T02:05:29;95183.38;;;-0.62;100.00
48041;BME280;33815;48.386;11.738;2024-03-29T02:07:55;95162.78;;;-0.72;100.00
48041;BME280;33815;48.386;11.738;2024-03-29T02:10:21;95164.91;;;-0.66;100.00
48041;BME280;33815;48.386;11.738;2024-03-29T02:12:47;95176.75;;;-0.76;100.00
48041;BME280;33815;48.386;11.738;2024-03-29T02:15:15;95178.63;;;-0.78;100.00
48041;BME280;33815;48.386;11.738;2024-03-29T02:17:43;95183.75;;;-0.78;100.00
48041;BME280;33815;48.386;11.738;2024-03-29T02:20:09;95190.13;;;-0.73;100.00
48041;BME280;33815;48.386;11.738;2024-03-29T02:22:39;95189.91;;;-0.70;100.00
48041;BME280;33815;48.386;11.738;2024-03-29T02:25:06;95180.47;;;-0.80;100.00
48041;BME280;33815;48.386;11.738;2024-03-29T02:27:31;95176.97;;;-0.79;100.00
48041;BME280;33815;48.386;11.738;2024-03-29T02:30:13;95171.28;;;-0.72;100.00
48041;BME280;33815;48.386;11.738;2024-03-29T02:32:39;95164.06;;;-0.78;100.00
48041;BME280;33815;48.386;11.738;2024-03-29T02:35:05;95164.78;;;-0.64;100.00
48041;BME280;33815;48.386;11.738;2024-03-29T02:37:30;95159.44;;;-0.73;100.00
48041;BME280;33815;48.386;11.738;2024-03-29T02:39:56;95155.59;;;-0.78;100.00
48041;BME280;33815;48.386;11.738;2024-03-29T02:42:21;95171.63;;;-0.76;100.00
48041;BME280;33815;48.386;11.738;2024-03-29T02:44:46;95166.63;;;-0.89;100.00
48041;BME280;33815;48.386;11.738;2024-03-29T02:47:12;95167.44;;;-0.89;100.00
48041;BME280;33815;48.386;11.738;2024-03-29T02:49:37;95164.41;;;-0.94;100.00
48041;BME280;33815;48.386;11.738;2024-03-29T02:52:02;95164.19;;;-0.91;100.00
48041;BME280;33815;48.386;11.738;2024-03-29T02:54:28;95159.44;;;-0.84;100.00
48041;BME280;33815;48.386;11.738;2024-03-29T02:56:53;95159.19;;;-0.81;100.00
48041;BME280;33815;48.386;11.738;2024-03-29T02:59:18;95169.91;;;-0.64;100.00
48041;BME280;33815;48.386;11.738;2024-03-29T03:01:43;95152.56;;;-0.61;100.00
48041;BME280;33815;48.386;11.738;2024-03-29T03:04:09;95165.94;;;-0.57;100.00
48041;BME280;33815;48.386;11.738;2024-03-29T03:06:34;95150.22;;;-0.53;100.00
48041;BME280;33815;48.386;11.738;2024-03-29T03:08:59;95155.59;;;-0.44;100.00
48041;BME280;33815;48.386;11.738;2024-03-29T03:11:43;95146.41;;;-0.70;100.00
48041;BME280;33815;48.386;11.738;2024-03-29T03:14:08;95156.28;;;-0.65;100.00
48041;BME280;33815;48.386;11.738;2024-03-29T03:16:34;95166.75;;;-0.45;100.00
48041;BME280;33815;48.386;11.738;2024-03-29T03:18:59;95143.72;;;-0.68;100.00
48041;BME280;33815;48.386;11.738;2024-03-29T03:21:24;95149.19;;;-0.61;100.00
48041;BME280;33815;48.386;11.738;2024-03-29T03:23:50;95143.59;;;-0.66;100.00
48041;BME280;33815;48.386;11.738;2024-03-29T03:26:15;95141.63;;;-0.63;100.00
48041;BME280;33815;48.386;11.738;2024-03-29T03:28:40;95140.00;;;-0.75;100.00
48041;BME280;33815;48.386;11.738;2024-03-29T03:31:06;95144.53;;;-0.79;100.00
48041;BME280;33815;48.386;11.738;2024-03-29T03:33:32;95131.97;;;-0.82;100.00
48041;BME280;33815;48.386;11.738;2024-03-29T03:35:57;95145.13;;;-0.75;100.00
48041;BME280;33815;48.386;11.738;2024-03-29T03:38:22;95144.41;;;-0.77;100.00
48041;BME280;33815;48.386;11.738;2024-03-29T03:40:48;95130.44;;;-0.62;100.00
48041;BME280;33815;48.386;11.738;2024-03-29T03:43:13;95115.59;;;-0.79;100.00
48041;BME280;33815;48.386;11.738;2024-03-29T03:45:40;95120.59;;;-0.78;100.00
48041;BME280;33815;48.386;11.738;2024-03-29T03:48:09;95108.59;;;-0.77;100.00
48041;BME280;33815;48.386;11.738;2024-03-29T03:50:36;95112.09;;;-0.78;100.00
48041;BME280;33815;48.386;11.738;2024-03-29T03:53:05;95114.19;;;-0.83;100.00
48041;BME280;33815;48.386;11.738;2024-03-29T03:55:30;95121.97;;;-0.85;100.00
48041;BME280;33815;48.386;11.738;2024-03-29T03:57:55;95123.94;;;-1.00;100.00
48041;BME280;33815;48.386;11.738;2024-03-29T04:00:22;95158.59;;;-0.96;100.00
48041;BME280;33815;48.386;11.738;2024-03-29T04:02:50;95159.06;;;-0.91;100.00
48041;BME280;33815;48.386;11.738;2024-03-29T04:05:17;95153.16;;;-0.91;100.00
48041;BME280;33815;48.386;11.738;2024-03-29T04:07:42;95127.66;;;-1.04;100.00
48041;BME280;33815;48.386;11.738;2024-03-29T04:10:08;95142.44;;;-0.96;100.00
48041;BME280;33815;48.386;11.738;2024-03-29T04:12:33;95145.47;;;-0.91;100.00
48041;BME280;33815;48.386;11.738;2024-03-29T04:14:58;95137.44;;;-0.98;100.00
48041;BME280;33815;48.386;11.738;2024-03-29T04:17:24;95130.69;;;-0.99;100.00
48041;BME280;33815;48.386;11.738;2024-03-29T04:19:49;95125.69;;;-1.00;100.00
48041;BME280;33815;48.386;11.738;2024-03-29T04:22:14;95123.38;;;-1.04;100.00
48041;BME280;33815;48.386;11.738;2024-03-29T04:24:39;95102.44;;;-1.09;100.00
48041;BME280;33815;48.386;11.738;2024-03-29T04:27:05;95100.00;;;-1.22;100.00
48041;BME280;33815;48.386;11.738;2024-03-29T04:29:30;95108.03;;;-1.15;100.00
48041;BME280;33815;48.386;11.738;2024-03-29T04:31:55;95101.97;;;-1.14;100.00
48041;BME280;33815;48.386;11.738;2024-03-29T04:34:20;95101.75;;;-1.11;100.00
48041;BME280;33815;48.386;11.738;2024-03-29T04:36:46;95105.47;;;-1.15;100.00
48041;BME280;33815;48.386;11.738;2024-03-29T04:39:11;95100.25;;;-1.02;100.00
48041;BME280;33815;48.386;11.738;2024-03-29T04:41:36;95076.50;;;-1.15;100.00
48041;BME280;33815;48.386;11.738;2024-03-29T04:44:01;95081.88;;;-1.07;100.00
48041;BME280;33815;48.386;11.738;2024-03-29T04:46:29;95075.94;;;-1.08;100.00
48041;BME280;33815;48.386;11.738;2024-03-29T04:48:55;95077.47;;;-0.94;100.00
48041;BME280;33815;48.386;11.738;2024-03-29T04:51:20;95083.97;;;-0.90;100.00
48041;BME280;33815;48.386;11.738;2024-03-29T04:53:45;95088.13;;;-0.77;100.00
48041;BME280;33815;48.386;11.738;2024-03-29T04:56:10;95074.91;;;-0.82;100.00
48041;BME280;33815;48.386;11.738;2024-03-29T04:58:36;95058.84;;;-0.96;100.00
48041;BME280;33815;48.386;11.738;2024-03-29T05:01:01;95094.19;;;-0.78;100.00
48041;BME280;33815;48.386;11.738;2024-03-29T05:03:26;95096.16;;;-0.71;100.00
48041;BME280;33815;48.386;11.738;2024-03-29T05:05:52;95105.22;;;-0.66;100.00
48041;BME280;33815;48.386;11.738;2024-03-29T05:08:18;95114.88;;;-0.81;100.00
48041;BME280;33815;48.386;11.738;2024-03-29T05:10:45;95111.50;;;-0.71;100.00
48041;BME280;33815;48.386;11.738;2024-03-29T05:13:10;95107.34;;;-0.60;100.00
48041;BME280;33815;48.386;11.738;2024-03-29T05:15:35;95101.41;;;-0.72;100.00
48041;BME280;33815;48.386;11.738;2024-03-29T05:18:02;95115.00;;;-0.83;100.00
48041;BME280;33815;48.386;11.738;2024-03-29T05:20:27;95111.63;;;-0.83;100.00
48041;BME280;33815;48.386;11.738;2024-03-29T05:22:52;95109.44;;;-0.77;100.00
48041;BME280;33815;48.386;11.738;2024-03-29T05:25:17;95107.56;;;-0.75;100.00
48041;BME280;33815;48.386;11.738;2024-03-29T05:27:43;95095.09;;;-0.57;100.00
48041;BME280;33815;48.386;11.738;2024-03-29T05:30:08;95084.03;;;-0.46;100.00
48041;BME280;33815;48.386;11.738;2024-03-29T05:32:38;95080.63;;;-0.24;100.00
48041;BME280;33815;48.386;11.738;2024-03-29T05:35:04;95078.22;;;-0.15;100.00
48041;BME280;33815;48.386;11.738;2024-03-29T05:37:29;95051.34;;;-0.10;100.00
48041;BME280;33815;48.386;11.738;2024-03-29T05:39:55;95044.13;;;0.16;100.00
48041;BME280;33815;48.386;11.738;2024-03-29T05:42:31;95039.38;;;0.33;100.00
48041;BME280;33815;48.386;11.738;2024-03-29T05:44:56;95040.13;;;0.45;100.00
48041;BME280;33815;48.386;11.738;2024-03-29T05:47:22;95044.13;;;0.90;100.00
48041;BME280;33815;48.386;11.738;2024-03-29T05:49:48;95041.59;;;0.99;100.00
48041;BME280;33815;48.386;11.738;2024-03-29T05:52:13;95031.81;;;1.14;100.00
48041;BME280;33815;48.386;11.738;2024-03-29T05:54:43;95036.28;;;1.22;100.00
48041;BME280;33815;48.386;11.738;2024-03-29T05:57:08;95019.44;;;1.29;100.00
48041;BME280;33815;48.386;11.738;2024-03-29T05:59:34;95032.28;;;1.39;100.00
48041;BME280;33815;48.386;11.738;2024-03-29T06:02:00;95019.34;;;1.50;100.00
48041;BME280;33815;48.386;11.738;2024-03-29T06:04:25;95026.91;;;1.62;100.00
48041;BME280;33815;48.386;11.738;2024-03-29T06:06:58;95028.28;;;1.76;100.00
48041;BME280;33815;48.386;11.738;2024-03-29T06:09:24;95033.16;;;1.88;100.00
48041;BME280;33815;48.386;11.738;2024-03-29T06:11:49;95038.16;;;2.00;100.00
48041;BME280;33815;48.386;11.738;2024-03-29T06:14:14;95041.53;;;2.10;100.00
48041;BME280;33815;48.386;11.738;2024-03-29T06:16:58;95044.38;;;2.27;100.00
48041;BME280;33815;48.386;11.738;2024-03-29T06:19:42;95052.84;;;2.47;100.00
48041;BME280;33815;48.386;11.738;2024-03-29T06:22:07;95057.59;;;2.61;100.00
48041;BME280;33815;48.386;11.738;2024-03-29T06:24:34;95055.13;;;2.69;100.00
48041;BME280;33815;48.386;11.738;2024-03-29T06:27:00;95073.22;;;2.87;100.00
48041;BME280;33815;48.386;11.738;2024-03-29T06:29:25;95071.81;;;3.03;100.00
48041;BME280;33815;48.386;11.738;2024-03-29T06:31:50;95084.75;;;3.21;100.00
48041;BME280;33815;48.386;11.738;2024-03-29T06:34:15;95099.13;;;3.51;100.00
48041;BME280;33815;48.386;11.738;2024-03-29T06:36:41;95093.16;;;3.78;100.00
48041;BME280;33815;48.386;11.738;2024-03-29T06:39:06;95099.22;;;4.05;100.00
48041;BME280;33815;48.386;11.738;2024-03-29T06:41:32;95096.50;;;4.07;100.00
48041;BME280;33815;48.386;11.738;2024-03-29T06:43:57;95098.50;;;4.31;100.00
48041;BME280;33815;48.386;11.738;2024-03-29T06:46:23;95096.94;;;4.38;100.00
48041;BME280;33815;48.386;11.738;2024-03-29T06:48:48;95104.53;;;4.40;100.00
48041;BME280;33815;48.386;11.738;2024-03-29T06:51:14;95070.63;;;4.53;100.00
48041;BME280;33815;48.386;11.738;2024-03-29T06:53:39;95067.59;;;4.84;100.00
48041;BME280;33815;48.386;11.738;2024-03-29T06:56:05;95067.19;;;4.96;100.00
48041;BME280;33815;48.386;11.738;2024-03-29T06:58:30;95070.91;;;5.28;100.00
48041;BME280;33815;48.386;11.738;2024-03-29T07:00:56;95060.53;;;5.20;100.00
48041;BME280;33815;48.386;11.738;2024-03-29T07:03:23;95065.47;;;5.40;100.00
48041;BME280;33815;48.386;11.738;2024-03-29T07:05:49;95059.34;;;5.41;100.00
48041;BME280;33815;48.386;11.738;2024-03-29T07:08:15;95064.50;;;5.41;100.00
48041;BME280;33815;48.386;11.738;2024-03-29T07:10:41;95057.81;;;5.64;100.00
48041;BME280;33815;48.386;11.738;2024-03-29T07:13:07;95052.19;;;5.77;100.00
48041;BME280;33815;48.386;11.738;2024-03-29T07:15:33;95061.66;;;6.20;100.00
48041;BME280;33815;48.386;11.738;2024-03-29T07:17:58;95042.91;;;6.09;100.00
48041;BME280;33815;48.386;11.738;2024-03-29T07:20:25;95061.50;;;6.71;100.00
48041;BME280;33815;48.386;11.738;2024-03-29T07:22:50;95042.38;;;6.72;100.00
48041;BME280;33815;48.386;11.738;2024-03-29T07:25:15;95041.06;;;7.00;100.00
48041;BME280;33815;48.386;11.738;2024-03-29T07:27:40;95042.50;;;7.03;100.00
48041;BME280;33815;48.386;11.738;2024-03-29T07:30:06;95048.97;;;7.07;96.62
48041;BME280;33815;48.386;11.738;2024-03-29T07:32:33;95044.91;;;7.13;95.68
48041;BME280;33815;48.386;11.738;2024-03-29T07:34:58;95039.09;;;6.94;98.87
48041;BME280;33815;48.386;11.738;2024-03-29T07:37:24;95050.69;;;7.31;94.31
48041;BME280;33815;48.386;11.738;2024-03-29T07:39:50;95042.69;;;8.04;90.26
48041;BME280;33815;48.386;11.738;2024-03-29T07:42:15;95051.31;;;8.28;87.29
48041;BME280;33815;48.386;11.738;2024-03-29T07:44:41;95053.66;;;8.14;87.52
48041;BME280;33815;48.386;11.738;2024-03-29T07:47:06;95024.25;;;7.99;89.79
48041;BME280;33815;48.386;11.738;2024-03-29T07:49:32;95017.22;;;8.31;88.54
48041;BME280;33815;48.386;11.738;2024-03-29T07:51:57;95025.16;;;8.29;84.75
48041;BME280;33815;48.386;11.738;2024-03-29T07:54:22;95043.44;;;8.59;87.27
48041;BME280;33815;48.386;11.738;2024-03-29T07:56:47;95042.91;;;8.64;87.99
48041;BME280;33815;48.386;11.738;2024-03-29T07:59:13;95052.84;;;8.98;84.55
48041;BME280;33815;48.386;11.738;2024-03-29T08:01:38;95058.84;;;9.14;83.69
48041;BME280;33815;48.386;11.738;2024-03-29T08:04:06;95076.50;;;9.18;79.52
48041;BME280;33815;48.386;11.738;2024-03-29T08:06:31;95077.75;;;9.07;80.57
48041;BME280;33815;48.386;11.738;2024-03-29T08:08:58;95073.25;;;9.01;80.03
48041;BME280;33815;48.386;11.738;2024-03-29T08:11:23;95080.44;;;8.99;80.15
48041;BME280;33815;48.386;11.738;2024-03-29T08:13:48;95075.78;;;9.09;80.84
48041;BME280;33815;48.386;11.738;2024-03-29T08:16:13;95076.88;;;9.15;81.78
48041;BME280;33815;48.386;11.738;2024-03-29T08:18:41;95064.41;;;9.40;81.46
48041;BME280;33815;48.386;11.738;2024-03-29T08:21:07;95045.56;;;9.68;79.48
48041;BME280;33815;48.386;11.738;2024-03-29T08:23:37;95047.00;;;9.92;78.16
48041;BME280;33815;48.386;11.738;2024-03-29T08:26:04;95070.03;;;10.10;74.69
48041;BME280;33815;48.386;11.738;2024-03-29T08:28:29;95069.94;;;10.04;75.51
48041;BME280;33815;48.386;11.738;2024-03-29T08:30:58;95058.75;;;10.03;75.10
48041;BME280;33815;48.386;11.738;2024-03-29T08:33:24;95066.25;;;10.13;78.35
48041;BME280;33815;48.386;11.738;2024-03-29T08:35:49;95042.41;;;10.53;75.80
48041;BME280;33815;48.386;11.738;2024-03-29T08:38:15;95057.47;;;10.79;79.87
48041;BME280;33815;48.386;11.738;2024-03-29T08:40:41;95066.78;;;11.23;77.67
48041;BME280;33815;48.386;11.738;2024-03-29T08:43:08;95056.22;;;11.38;76.42
48041;BME280;33815;48.386;11.738;2024-03-29T08:45:34;95057.19;;;11.30;73.49
48041;BME280;33815;48.386;11.738;2024-03-29T08:47:59;95049.03;;;11.47;75.48
48041;BME280;33815;48.386;11.738;2024-03-29T08:50:24;95058.13;;;11.58;76.09
48041;BME280;33815;48.386;11.738;2024-03-29T08:52:49;95056.09;;;11.95;74.58
48041;BME280;33815;48.386;11.738;2024-03-29T08:55:15;95053.09;;;12.05;71.45
48041;BME280;33815;48.386;11.738;2024-03-29T08:57:40;95043.47;;;11.98;71.07
48041;BME280;33815;48.386;11.738;2024-03-29T09:00:08;95048.88;;;11.97;72.15
48041;BME280;33815;48.386;11.738;2024-03-29T09:02:33;95028.31;;;11.80;72.96
48041;BME280;33815;48.386;11.738;2024-03-29T09:04:59;95052.91;;;12.06;72.52
48041;BME280;33815;48.386;11.738;2024-03-29T09:07:24;95038.84;;;12.07;72.40
48041;BME280;33815;48.386;11.738;2024-03-29T09:09:50;95049.97;;;12.29;71.93
48041;BME280;33815;48.386;11.738;2024-03-29T09:12:15;95062.44;;;12.41;72.28
48041;BME280;33815;48.386;11.738;2024-03-29T09:14:41;95045.31;;;12.31;69.40
48041;BME280;33815;48.386;11.738;2024-03-29T09:17:06;95058.00;;;12.34;71.86
48041;BME280;33815;48.386;11.738;2024-03-29T09:19:32;95071.88;;;12.55;71.20
48041;BME280;33815;48.386;11.738;2024-03-29T09:21:58;95049.97;;;12.36;72.33
48041;BME280;33815;48.386;11.738;2024-03-29T09:24:23;95049.78;;;12.44;73.57
48041;BME280;33815;48.386;11.738;2024-03-29T09:26:50;95049.38;;;12.61;70.55
48041;BME280;33815;48.386;11.738;2024-03-29T09:29:16;95039.31;;;12.78;72.25
48041;BME280;33815;48.386;11.738;2024-03-29T09:31:43;95036.09;;;13.09;70.81
48041;BME280;33815;48.386;11.738;2024-03-29T09:34:08;95034.44;;;13.42;70.19
48041;BME280;33815;48.386;11.738;2024-03-29T09:36:34;95013.25;;;13.57;68.36
48041;BME280;33815;48.386;11.738;2024-03-29T09:38:59;95010.50;;;13.90;67.70
48041;BME280;33815;48.386;11.738;2024-03-29T09:41:25;95013.91;;;13.91;67.51
48041;BME280;33815;48.386;11.738;2024-03-29T09:43:53;95017.38;;;14.16;67.60
48041;BME280;33815;48.386;11.738;2024-03-29T09:46:20;95017.41;;;14.10;67.54
48041;BME280;33815;48.386;11.738;2024-03-29T09:48:47;95014.94;;;14.21;65.01
48041;BME280;33815;48.386;11.738;2024-03-29T09:51:13;95021.72;;;14.29;67.09
48041;BME280;33815;48.386;11.738;2024-03-29T09:53:41;95015.00;;;14.72;64.54
48041;BME280;33815;48.386;11.738;2024-03-29T09:56:07;95031.28;;;14.81;64.50
48041;BME280;33815;48.386;11.738;2024-03-29T09:58:34;95034.75;;;15.00;64.93
48041;BME280;33815;48.386;11.738;2024-03-29T10:01:01;95022.66;;;15.36;63.26
48041;BME280;33815;48.386;11.738;2024-03-29T10:03:28;95022.81;;;15.59;64.01
48041;BME280;33815;48.386;11.738;2024-03-29T10:06:01;95023.41;;;15.80;64.23
48041;BME280;33815;48.386;11.738;2024-03-29T10:08:27;95003.97;;;16.00;60.99
48041;BME280;33815;48.386;11.738;2024-03-29T10:10:55;95002.75;;;16.14;59.99
48041;BME280;33815;48.386;11.738;2024-03-29T10:13:21;95010.53;;;15.90;60.45
48041;BME280;33815;48.386;11.738;2024-03-29T10:15:49;95013.06;;;15.85;62.23
48041;BME280;33815;48.386;11.738;2024-03-29T10:18:16;95005.03;;;15.62;60.65
48041;BME280;33815;48.386;11.738;2024-03-29T10:20:43;95016.75;;;15.77;62.46
48041;BME280;33815;48.386;11.738;2024-03-29T10:23:09;95002.94;;;16.01;59.54
48041;BME280;33815;48.386;11.738;2024-03-29T10:25:34;94997.41;;;15.72;60.81
48041;BME280;33815;48.386;11.738;2024-03-29T10:28:00;95010.78;;;15.89;62.27
48041;BME280;33815;48.386;11.738;2024-03-29T10:30:27;95001.22;;;15.76;61.91
48041;BME280;33815;48.386;11.738;2024-03-29T10:32:52;94990.47;;;15.96;60.28
48041;BME280;33815;48.386;11.738;2024-03-29T10:35:18;94998.75;;;16.12;61.47
48041;BME280;33815;48.386;11.738;2024-03-29T10:37:44;94994.25;;;16.00;60.36
48041;BME280;33815;48.386;11.738;2024-03-29T10:40:11;94990.78;;;16.18;62.13
48041;BME280;33815;48.386;11.738;2024-03-29T10:42:40;94979.38;;;16.36;61.46
48041;BME280;33815;48.386;11.738;2024-03-29T10:45:07;94989.13;;;16.48;61.12
48041;BME280;33815;48.386;11.738;2024-03-29T10:47:33;94994.59;;;16.46;61.83
48041;BME280;33815;48.386;11.738;2024-03-29T10:49:59;94981.47;;;16.46;60.95
48041;BME280;33815;48.386;11.738;2024-03-29T10:52:25;94975.66;;;16.68;58.76
48041;BME280;33815;48.386;11.738;2024-03-29T10:54:51;94977.84;;;16.71;57.74
48041;BME280;33815;48.386;11.738;2024-03-29T10:57:23;94973.38;;;16.59;58.80
48041;BME280;33815;48.386;11.738;2024-03-29T11:00:02;94975.66;;;16.44;59.03
48041;BME280;33815;48.386;11.738;2024-03-29T11:05:35;94979.75;;;16.40;60.84
48041;BME280;33815;48.386;11.738;2024-03-29T11:08:06;94975.66;;;16.44;60.72
48041;BME280;33815;48.386;11.738;2024-03-29T11:10:41;94981.25;;;16.83;60.29
48041;BME280;33815;48.386;11.738;2024-03-29T11:15:41;94968.75;;;17.38;56.05
48041;BME280;33815;48.386;11.738;2024-03-29T11:18:09;94941.09;;;17.35;56.63
48041;BME280;33815;48.386;11.738;2024-03-29T11:20:35;94948.09;;;17.58;58.46
48041;BME280;33815;48.386;11.738;2024-03-29T11:23:10;94944.41;;;18.00;54.02
48041;BME280;33815;48.386;11.738;2024-03-29T11:25:38;94940.34;;;17.80;56.30
48041;BME280;33815;48.386;11.738;2024-03-29T11:28:06;94930.41;;;18.00;54.49
48041;BME280;33815;48.386;11.738;2024-03-29T11:30:39;94941.38;;;17.91;54.72
48041;BME280;33815;48.386;11.738;2024-03-29T11:33:05;94943.13;;;17.74;55.97
48041;BME280;33815;48.386;11.738;2024-03-29T11:35:30;94948.50;;;17.79;57.24
48041;BME280;33815;48.386;11.738;2024-03-29T11:38:00;94931.47;;;17.87;53.55
48041;BME280;33815;48.386;11.738;2024-03-29T11:40:32;94947.00;;;17.83;54.40
48041;BME280;33815;48.386;11.738;2024-03-29T11:42:57;94954.41;;;17.86;56.42
48041;BME280;33815;48.386;11.738;2024-03-29T11:45:25;94944.13;;;17.85;55.28
48041;BME280;33815;48.386;11.738;2024-03-29T11:47:54;94941.09;;;18.39;57.52
48041;BME280;33815;48.386;11.738;2024-03-29T11:50:20;94939.31;;;18.78;55.94
48041;BME280;33815;48.386;11.738;2024-03-29T11:52:45;94916.22;;;18.69;52.67
48041;BME280;33815;48.386;11.738;2024-03-29T11:55:11;94915.50;;;18.73;53.88
48041;BME280;33815;48.386;11.738;2024-03-29T11:57:36;94915.69;;;19.06;55.81
48041;BME280;33815;48.386;11.738;2024-03-29T12:00:06;94909.66;;;19.10;51.41
48041;BME280;33815;48.386;11.738;2024-03-29T12:02:31;94893.78;;;19.05;51.36
48041;BME280;33815;48.386;11.738;2024-03-29T12:04:57;94922.81;;;19.05;55.01
48041;BME280;33815;48.386;11.738;2024-03-29T12:07:22;94910.25;;;19.62;53.67
48041;BME280;33815;48.386;11.738;2024-03-29T12:09:47;94905.38;;;19.76;54.04
48041;BME280;33815;48.386;11.738;2024-03-29T12:12:13;94915.78;;;20.10;53.75
48041;BME280;33815;48.386;11.738;2024-03-29T12:14:42;94902.28;;;19.57;51.16
48041;BME280;33815;48.386;11.738;2024-03-29T12:17:10;94907.63;;;19.84;51.72
48041;BME280;33815;48.386;11.738;2024-03-29T12:19:36;94895.00;;;19.42;50.72
48041;BME280;33815;48.386;11.738;2024-03-29T12:22:04;94902.44;;;18.83;51.84
48041;BME280;33815;48.386;11.738;2024-03-29T12:24:29;94896.63;;;18.30;53.16
48041;BME280;33815;48.386;11.738;2024-03-29T12:26:55;94910.53;;;17.92;55.05
48041;BME280;33815;48.386;11.738;2024-03-29T12:29:20;94902.97;;;17.95;57.54
48041;BME280;33815;48.386;11.738;2024-03-29T12:31:56;94909.53;;;18.10;58.08
48041;BME280;33815;48.386;11.738;2024-03-29T12:34:21;94910.06;;;18.63;56.75
48041;BME280;33815;48.386;11.738;2024-03-29T12:36:47;94896.19;;;19.29;56.91
48041;BME280;33815;48.386;11.738;2024-03-29T12:39:12;94875.41;;;19.65;52.92
48041;BME280;33815;48.386;11.738;2024-03-29T12:41:38;94876.69;;;19.62;52.28
48041;BME280;33815;48.386;11.738;2024-03-29T12:44:03;94868.31;;;19.71;52.93
48041;BME280;33815;48.386;11.738;2024-03-29T12:46:28;94865.03;;;19.31;52.32
48041;BME280;33815;48.386;11.738;2024-03-29T12:48:58;94863.06;;;19.21;54.12